Time;durP1;ratioP1;P1;durP2;ratioP2;P2;SDS_P1;SDS_P2;PMS_P1;PMS_P2;Temp;Humidity;BMP_temperature;BMP_pressure;BME280_temperature;BME280_humidity;BME280_pressure;Samples;Min_cycle;Max_cycle;Signal;HPM_P1;HPM_P2
2021/03/11 00:02:01;;;;;;;9.10;8.30;;;2.30;62.10;;;;;;5193519;28;20069;-67
2021/03/11 00:04:33;;;;;;;8.70;8.00;;;2.30;62.30;;;;;;5195147;28;20049;-67
2021/03/11 00:07:04;;;;;;;8.95;8.25;;;2.40;61.50;;;;;;5191785;28;20046;-68
2021/03/11 00:09:36;;;;;;;9.00;8.20;;;2.40;60.10;;;;;;5196078;28;20128;-67
2021/03/11 00:12:09;;;;;;;8.43;7.72;;;2.40;59.80;;;;;;5191134;28;20050;-67
2021/03/11 00:14:40;;;;;;;8.50;7.80;;;2.40;56.80;;;;;;5194850;28;20712;-69
2021/03/11 00:17:11;;;;;;;8.40;7.70;;;2.40;51.10;;;;;;5191839;28;20064;-68
2021/03/11 00:19:44;;;;;;;8.57;7.80;;;2.50;54.70;;;;;;5194069;28;20071;-67
2021/03/11 00:22:16;;;;;;;8.70;8.00;;;2.60;56.00;;;;;;5192016;28;20038;-68
2021/03/11 00:24:48;;;;;;;8.30;7.60;;;2.60;58.20;;;;;;5193484;28;20045;-68
2021/03/11 00:27:19;;;;;;;9.63;8.82;;;2.50;58.50;;;;;;5187309;28;20050;-69
2021/03/11 00:29:51;;;;;;;9.90;8.90;;;2.60;58.90;;;;;;5192942;28;20073;-67
2021/03/11 00:32:22;;;;;;;9.73;8.82;;;2.60;59.70;;;;;;5190051;28;20093;-68
2021/03/11 00:34:54;;;;;;;9.02;8.32;;;2.60;59.30;;;;;;5190022;28;20041;-67
2021/03/11 00:37:25;;;;;;;9.48;8.57;;;2.70;60.30;;;;;;5192555;28;20489;-67
2021/03/11 00:39:57;;;;;;;9.43;8.63;;;2.70;61.00;;;;;;5193593;28;20041;-67
2021/03/11 00:42:28;;;;;;;9.68;8.88;;;2.70;60.00;;;;;;5189916;28;20136;-67
2021/03/11 00:45:00;;;;;;;10.18;9.27;;;2.80;60.30;;;;;;5189363;28;20060;-67
2021/03/11 00:47:31;;;;;;;9.73;8.90;;;2.80;60.60;;;;;;5189867;28;20112;-70
2021/03/11 00:50:05;;;;;;;9.57;8.77;;;2.80;59.90;;;;;;5191316;28;20392;-69
2021/03/11 00:52:37;;;;;;;9.63;8.77;;;2.70;60.60;;;;;;5188267;28;20041;-68
2021/03/11 00:55:11;;;;;;;9.07;8.30;;;2.70;59.80;;;;;;5189062;28;20073;-67
2021/03/11 00:57:42;;;;;;;9.20;8.35;;;2.70;55.70;;;;;;5190970;28;20045;-67
2021/03/11 01:00:19;;;;;;;9.55;8.75;;;2.70;56.50;;;;;;5190367;28;20050;-68
2021/03/11 01:03:10;;;;;;;9.20;8.50;;;2.70;58.50;;;;;;5191271;28;20057;-68
2021/03/11 01:06:08;;;;;;;9.85;8.98;;;2.70;59.10;;;;;;5186304;28;20523;-67
2021/03/11 01:08:46;;;;;;;9.35;8.52;;;2.80;58.80;;;;;;5192009;28;20500;-67
2021/03/11 01:11:17;;;;;;;9.15;8.35;;;2.80;59.20;;;;;;5190299;28;20049;-68
2021/03/11 01:13:49;;;;;;;9.02;8.23;;;2.80;56.00;;;;;;5192131;28;20065;-67
2021/03/11 01:16:20;;;;;;;9.50;8.70;;;2.80;56.30;;;;;;5193669;28;20231;-67
2021/03/11 01:18:53;;;;;;;9.18;8.48;;;2.90;57.80;;;;;;5191073;28;20038;-68
2021/03/11 01:21:24;;;;;;;8.82;8.13;;;2.80;55.20;;;;;;5191609;28;20049;-68
2021/03/11 01:23:57;;;;;;;9.65;8.85;;;2.90;57.20;;;;;;5189886;28;20747;-67
2021/03/11 01:26:29;;;;;;;10.35;9.38;;;2.90;57.80;;;;;;5192877;28;20068;-68
2021/03/11 01:29:00;;;;;;;12.48;11.18;;;3.00;56.80;;;;;;5185902;28;20709;-68
2021/03/11 01:31:32;;;;;;;11.25;10.20;;;3.00;57.70;;;;;;5191119;28;20099;-69
2021/03/11 01:34:03;;;;;;;10.23;9.23;;;3.00;56.80;;;;;;5191645;28;20148;-68
2021/03/11 01:36:35;;;;;;;10.23;9.35;;;3.00;58.00;;;;;;5190825;28;21329;-70
2021/03/11 01:39:07;;;;;;;9.75;8.95;;;2.90;58.60;;;;;;5189170;28;20137;-69
2021/03/11 01:41:38;;;;;;;10.02;9.23;;;2.90;56.70;;;;;;5190682;28;20660;-69
2021/03/11 01:44:10;;;;;;;9.63;8.82;;;2.90;57.40;;;;;;5187982;28;20041;-68
2021/03/11 01:46:41;;;;;;;9.73;8.82;;;3.00;57.60;;;;;;5190209;28;20046;-70
2021/03/11 01:49:12;;;;;;;9.88;8.68;;;2.90;57.40;;;;;;5182516;28;20053;-68
2021/03/11 01:51:46;;;;;;;9.63;8.82;;;2.80;54.90;;;;;;5190560;28;20045;-68
2021/03/11 01:54:19;;;;;;;9.82;8.88;;;2.80;53.80;;;;;;5184088;28;20072;-70
2021/03/11 01:56:51;;;;;;;9.43;8.63;;;2.90;53.80;;;;;;5192535;28;20138;-68
2021/03/11 01:59:22;;;;;;;9.45;8.75;;;3.00;56.50;;;;;;5193633;28;20463;-68
2021/03/11 02:01:58;;;;;;;9.73;8.93;;;3.00;57.20;;;;;;5194987;28;20064;-67
2021/03/11 02:04:30;;;;;;;9.80;9.00;;;3.00;55.90;;;;;;5195727;28;20853;-69
2021/03/11 02:07:02;;;;;;;10.10;9.30;;;3.10;55.50;;;;;;5191213;28;20514;-67
2021/03/11 02:09:33;;;;;;;9.50;8.63;;;3.10;55.10;;;;;;5194748;28;20592;-67
2021/03/11 02:12:43;;;;;;;9.88;9.07;;;3.10;54.70;;;;;;5201604;28;20546;-68
2021/03/11 02:15:23;;;;;;;9.90;9.00;;;3.00;55.20;;;;;;5201451;28;20408;-68
2021/03/11 02:17:59;;;;;;;9.85;9.05;;;3.00;56.60;;;;;;5215924;28;20036;-68
2021/03/11 02:20:40;;;;;;;9.60;8.80;;;3.10;56.30;;;;;;5212524;28;20122;-69
2021/03/11 02:23:30;;;;;;;;;;;3.00;56.60;;;;;;5213673;28;20060;-68
2021/03/11 02:27:01;;;;;;;9.77;8.98;;;3.10;56.10;;;;;;5211003;28;20016;-69
2021/03/11 02:29:35;;;;;;;9.77;8.98;;;3.10;56.40;;;;;;5130223;28;20122;-70
2021/03/11 02:32:10;;;;;;;9.20;8.50;;;3.10;57.60;;;;;;5130705;28;20125;-68
2021/03/11 02:34:48;;;;;;;9.40;8.60;;;3.10;57.50;;;;;;5167499;28;20071;-68
2021/03/11 02:37:27;;;;;;;9.73;8.93;;;3.10;57.70;;;;;;5203658;28;20153;-69
2021/03/11 02:40:27;;;;;;;9.77;8.88;;;3.10;57.80;;;;;;5210538;28;20041;-69
2021/03/11 02:43:00;;;;;;;9.05;8.35;;;3.20;59.10;;;;;;5191626;28;20065;-67
2021/03/11 02:45:33;;;;;;;9.48;8.77;;;3.20;59.10;;;;;;5196236;28;20383;-68
2021/03/11 02:48:06;;;;;;;9.00;8.30;;;3.10;59.20;;;;;;5213954;28;20032;-68
2021/03/11 02:50:40;;;;;;;9.00;8.30;;;3.20;59.70;;;;;;5215245;28;20094;-67
2021/03/11 02:53:12;;;;;;;9.20;8.43;;;3.10;59.70;;;;;;5209422;28;20260;-69
2021/03/11 02:55:44;;;;;;;8.95;8.23;;;3.10;60.00;;;;;;5213347;28;20131;-69
2021/03/11 02:58:17;;;;;;;8.88;8.18;;;3.20;59.80;;;;;;5210016;28;20032;-69
2021/03/11 03:00:49;;;;;;;9.18;8.38;;;3.30;59.50;;;;;;5212709;28;20152;-69
2021/03/11 03:03:22;;;;;;;8.82;8.13;;;3.30;59.90;;;;;;5206607;28;20060;-69
2021/03/11 03:05:55;;;;;;;8.40;7.70;;;3.30;59.50;;;;;;5215199;28;20959;-68
2021/03/11 03:08:27;;;;;;;9.15;8.35;;;3.20;59.70;;;;;;5212177;28;20153;-67
2021/03/11 03:10:59;;;;;;;8.90;8.10;;;3.30;60.80;;;;;;5213845;28;20065;-67
2021/03/11 03:13:32;;;;;;;8.88;8.18;;;3.30;61.10;;;;;;5213523;28;20211;-69
2021/03/11 03:16:04;;;;;;;8.95;8.25;;;3.30;60.30;;;;;;5214652;28;20079;-69
2021/03/11 03:18:37;;;;;;;8.95;8.15;;;3.30;60.00;;;;;;5213498;28;20090;-67
2021/03/11 03:21:11;;;;;;;8.45;7.75;;;3.30;59.70;;;;;;5213072;28;20479;-67
2021/03/11 03:23:46;;;;;;;8.70;7.90;;;3.30;60.00;;;;;;5214248;28;20038;-68
2021/03/11 03:26:18;;;;;;;8.70;8.00;;;3.40;60.00;;;;;;5214560;28;20122;-68
2021/03/11 03:28:49;;;;;;;9.07;8.30;;;3.40;60.20;;;;;;5202221;28;20046;-69
2021/03/11 03:31:22;;;;;;;9.57;8.68;;;3.30;58.20;;;;;;5211580;28;20160;-68
2021/03/11 03:33:53;;;;;;;9.05;8.35;;;3.30;57.90;;;;;;5208417;28;20133;-68
2021/03/11 03:36:25;;;;;;;8.75;8.05;;;3.30;58.20;;;;;;5213773;28;20107;-66
2021/03/11 03:38:57;;;;;;;9.15;8.35;;;3.40;58.80;;;;;;5210441;28;20045;-67
2021/03/11 03:41:30;;;;;;;8.88;8.18;;;3.40;59.50;;;;;;5213539;28;20724;-68
2021/03/11 03:44:03;;;;;;;8.70;8.00;;;3.40;59.00;;;;;;5211225;28;20119;-68
2021/03/11 03:46:35;;;;;;;8.65;7.95;;;3.40;59.60;;;;;;5210439;28;20064;-66
2021/03/11 03:49:10;;;;;;;9.43;8.55;;;3.50;60.00;;;;;;5209925;28;20045;-67
2021/03/11 03:51:51;;;;;;;8.90;8.20;;;3.50;61.30;;;;;;5206347;28;20041;-67
2021/03/11 03:54:37;;;;;;;9.40;8.60;;;3.50;60.90;;;;;;5202622;28;20065;-67
2021/03/11 03:57:17;;;;;;;9.27;8.57;;;3.50;60.00;;;;;;5211210;28;20132;-66
2021/03/11 03:59:50;;;;;;;;;;;3.60;60.50;;;;;;5210637;28;20049;-67
2021/03/11 04:02:23;;;;;;;9.93;9.07;;;3.60;60.30;;;;;;5209983;28;20284;-67
2021/03/11 04:04:55;;;;;;;9.68;8.88;;;3.70;60.70;;;;;;5214643;28;20072;-67
2021/03/11 04:07:29;;;;;;;9.43;8.73;;;3.70;58.20;;;;;;5217107;28;20159;-66
2021/03/11 04:10:05;;;;;;;9.98;9.18;;;3.80;58.20;;;;;;5216148;28;20072;-67
2021/03/11 04:12:36;;;;;;;10.68;9.75;;;3.90;58.90;;;;;;5212331;28;20048;-66
2021/03/11 04:15:09;;;;;;;10.00;9.10;;;3.80;56.70;;;;;;5213661;28;20130;-68
2021/03/11 04:17:43;;;;;;;10.27;9.38;;;3.90;57.70;;;;;;5213943;28;20063;-66
2021/03/11 04:20:15;;;;;;;17.45;12.55;;;4.00;58.60;;;;;;5210652;28;20041;-67
2021/03/11 04:22:52;;;;;;;11.95;10.75;;;4.00;57.30;;;;;;5216541;28;20044;-67
2021/03/11 04:25:24;;;;;;;11.77;10.68;;;4.00;57.40;;;;;;5215422;28;20057;-67
2021/03/11 04:27:56;;;;;;;11.38;10.27;;;4.00;56.90;;;;;;5218062;28;20055;-67
2021/03/11 04:30:27;;;;;;;9.52;8.68;;;4.10;55.20;;;;;;5206784;28;20060;-67
2021/03/11 04:32:59;;;;;;;9.05;8.35;;;4.20;55.70;;;;;;5214689;28;20067;-67
2021/03/11 04:35:31;;;;;;;9.70;8.77;;;4.20;55.90;;;;;;5216281;28;20684;-69
2021/03/11 04:38:04;;;;;;;10.07;9.18;;;4.20;56.40;;;;;;5214610;28;20577;-69
2021/03/11 04:40:36;;;;;;;9.80;9.00;;;4.20;57.20;;;;;;5207992;28;20061;-68
2021/03/11 04:43:08;;;;;;;10.27;9.48;;;4.20;55.90;;;;;;5212466;28;20037;-68
2021/03/11 04:45:42;;;;;;;9.75;8.95;;;4.30;57.30;;;;;;5212660;28;20103;-68
2021/03/11 04:48:15;;;;;;;9.32;8.63;;;4.30;57.90;;;;;;5211459;28;20040;-68
2021/03/11 04:50:48;;;;;;;9.20;8.50;;;4.20;57.40;;;;;;5211901;28;20037;-69
2021/03/11 04:53:21;;;;;;;9.23;8.52;;;4.20;56.40;;;;;;5215981;28;20122;-70
2021/03/11 04:55:53;;;;;;;9.75;8.95;;;4.30;56.10;;;;;;5212439;28;20071;-68
2021/03/11 04:58:25;;;;;;;9.55;8.75;;;4.30;55.80;;;;;;5210742;28;20065;-68
2021/03/11 05:00:58;;;;;;;9.43;8.63;;;4.40;55.60;;;;;;5205167;28;20572;-68
2021/03/11 05:03:30;;;;;;;9.50;8.63;;;4.40;56.70;;;;;;5207595;28;20053;-68
2021/03/11 05:06:02;;;;;;;9.02;8.32;;;4.40;57.30;;;;;;5213361;28;20461;-69
2021/03/11 05:08:33;;;;;;;9.23;8.43;;;4.30;56.50;;;;;;5212665;28;20044;-70
2021/03/11 05:11:05;;;;;;;9.63;8.77;;;4.40;56.20;;;;;;5214942;28;20802;-69
2021/03/11 05:13:36;;;;;;;9.57;8.88;;;4.40;56.80;;;;;;5214161;28;20072;-69
2021/03/11 05:16:08;;;;;;;9.82;8.90;;;4.40;57.10;;;;;;5217192;28;20049;-68
2021/03/11 05:18:39;;;;;;;9.95;9.15;;;4.40;56.70;;;;;;5216604;28;20187;-69
2021/03/11 05:21:12;;;;;;;9.40;8.70;;;4.40;57.60;;;;;;5213908;28;20047;-68
2021/03/11 05:24:01;;;;;;;;;;;4.50;56.40;;;;;;5209353;28;20037;-69
2021/03/11 05:26:32;;;;;;;10.43;9.63;;;4.60;54.90;;;;;;5214935;28;20274;-69
2021/03/11 05:29:05;;;;;;;10.20;9.40;;;4.70;56.30;;;;;;5201285;28;20033;-68
2021/03/11 05:31:37;;;;;;;10.30;9.40;;;4.80;56.30;;;;;;5213216;28;20045;-69
2021/03/11 05:34:08;;;;;;;10.23;9.43;;;4.80;57.80;;;;;;5212918;28;20041;-69
2021/03/11 05:36:40;;;;;;;10.77;9.77;;;4.70;58.70;;;;;;5207577;28;20052;-68
2021/03/11 05:39:12;;;;;;;9.15;8.45;;;4.70;57.40;;;;;;5209668;28;20052;-69
2021/03/11 05:41:45;;;;;;;9.98;9.10;;;4.70;59.10;;;;;;5206842;28;20035;-68
2021/03/11 05:44:16;;;;;;;9.35;8.55;;;4.70;57.90;;;;;;5205900;28;20068;-66
2021/03/11 05:46:48;;;;;;;10.10;8.70;;;4.70;58.40;;;;;;5209513;28;20099;-65
2021/03/11 05:49:21;;;;;;;9.63;8.70;;;4.80;59.50;;;;;;5208968;28;20878;-66
2021/03/11 05:51:53;;;;;;;9.10;8.40;;;4.80;60.60;;;;;;5212787;28;20077;-66
2021/03/11 05:54:30;;;;;;;9.85;9.05;;;4.80;56.40;;;;;;5210242;28;20049;-65
2021/03/11 05:57:03;;;;;;;9.10;8.30;;;4.90;58.30;;;;;;5210297;28;20167;-66
2021/03/11 05:59:35;;;;;;;8.80;8.10;;;5.10;50.00;;;;;;5211693;28;20044;-67
2021/03/11 06:02:07;;;;;;;8.98;8.27;;;5.40;47.20;;;;;;5209549;28;20052;-66
2021/03/11 06:04:39;;;;;;;8.82;8.13;;;5.70;46.40;;;;;;5208264;28;20112;-65
2021/03/11 06:07:11;;;;;;;9.77;8.98;;;5.80;46.50;;;;;;5200255;28;20052;-67
2021/03/11 06:09:43;;;;;;;9.02;8.23;;;5.90;43.50;;;;;;5202754;28;20132;-65
2021/03/11 06:12:16;;;;;;;9.65;8.85;;;6.10;42.70;;;;;;5202861;28;20629;-67
2021/03/11 06:14:52;;;;;;;13.50;9.45;;;6.30;44.30;;;;;;5206358;28;20057;-66
2021/03/11 06:17:28;;;;;;;9.60;8.80;;;6.30;44.30;;;;;;5203197;28;20048;-65
2021/03/11 06:20:00;;;;;;;10.00;9.00;;;6.30;45.70;;;;;;5208221;28;20091;-67
2021/03/11 06:22:32;;;;;;;8.90;8.10;;;6.20;45.80;;;;;;5202825;28;20497;-65
2021/03/11 06:25:06;;;;;;;9.45;8.65;;;6.10;47.60;;;;;;5207589;28;20033;-66
2021/03/11 06:27:38;;;;;;;10.00;9.10;;;6.10;46.30;;;;;;5208244;28;20041;-65
2021/03/11 06:30:29;;;;;;;8.85;8.07;;;6.10;47.70;;;;;;5209443;28;20701;-67
2021/03/11 06:33:02;;;;;;;8.95;8.25;;;6.10;48.20;;;;;;5206353;28;20130;-67
2021/03/11 06:35:36;;;;;;;10.25;9.45;;;6.20;50.30;;;;;;5191872;28;20049;-65
2021/03/11 06:38:27;;;;;;;9.27;8.48;;;6.20;51.50;;;;;;5201288;28;20044;-66
2021/03/11 06:40:59;;;;;;;9.73;8.90;;;6.20;53.10;;;;;;5199963;28;20094;-66
2021/03/11 06:43:31;;;;;;;10.52;9.40;;;6.20;53.20;;;;;;5210745;28;20037;-66
2021/03/11 06:46:09;;;;;;;10.10;9.20;;;6.20;53.20;;;;;;5209113;28;20040;-65
2021/03/11 06:48:41;;;;;;;9.48;8.68;;;6.30;55.20;;;;;;5212618;28;20060;-66
2021/03/11 06:51:20;;;;;;;9.80;8.90;;;6.40;57.50;;;;;;5207398;28;20127;-65
2021/03/11 06:53:57;;;;;;;9.73;8.93;;;6.30;59.90;;;;;;5211886;28;20573;-65
2021/03/11 06:56:28;;;;;;;9.55;8.75;;;6.20;61.70;;;;;;5211620;28;20052;-66
2021/03/11 06:59:05;;;;;;;9.75;8.95;;;6.20;57.80;;;;;;5212816;28;20033;-65
2021/03/11 07:01:48;;;;;;;9.38;8.52;;;6.20;61.10;;;;;;5208256;28;20520;-65
2021/03/11 07:04:23;;;;;;;9.27;8.48;;;6.20;64.60;;;;;;5214117;28;20453;-65
2021/03/11 07:06:55;;;;;;;9.77;8.98;;;6.20;66.80;;;;;;5211879;28;20097;-65
2021/03/11 07:09:39;;;;;;;9.18;8.38;;;6.20;64.80;;;;;;5212130;28;20079;-65
2021/03/11 07:12:11;;;;;;;9.27;8.57;;;6.20;68.40;;;;;;5209736;28;20502;-65
2021/03/11 07:14:43;;;;;;;9.35;8.65;;;6.20;68.90;;;;;;5214033;28;20502;-65
2021/03/11 07:17:25;;;;;;;9.60;8.82;;;6.20;69.50;;;;;;5213795;28;20095;-66
2021/03/11 07:20:20;;;;;;;9.93;9.13;;;6.20;69.80;;;;;;5214942;28;20041;-67
2021/03/11 07:23:09;;;;;;;10.15;9.30;;;6.20;70.50;;;;;;5211870;28;20072;-66
2021/03/11 07:25:45;;;;;;;10.13;9.30;;;6.30;70.00;;;;;;5210047;28;20049;-66
2021/03/11 07:28:23;;;;;;;10.02;9.20;;;6.40;66.40;;;;;;5213937;28;20099;-66
2021/03/11 07:30:57;;;;;;;9.60;8.90;;;6.50;66.70;;;;;;5210381;28;20045;-65
2021/03/11 07:33:31;;;;;;;9.43;8.55;;;6.60;66.30;;;;;;5214590;28;20206;-66
2021/03/11 07:36:06;;;;;;;10.35;9.45;;;6.70;66.40;;;;;;5212317;28;20076;-66
2021/03/11 07:38:38;;;;;;;9.90;8.93;;;6.60;64.80;;;;;;5212895;28;20053;-66
2021/03/11 07:41:12;;;;;;;9.30;8.52;;;6.60;63.70;;;;;;5216890;28;20041;-65
2021/03/11 07:43:44;;;;;;;9.23;8.43;;;6.60;64.40;;;;;;5219423;28;20045;-66
2021/03/11 07:46:16;;;;;;;9.57;8.88;;;6.70;63.50;;;;;;5216252;28;20049;-65
2021/03/11 07:48:48;;;;;;;8.95;8.25;;;6.80;62.80;;;;;;5217798;28;20084;-65
2021/03/11 07:51:20;;;;;;;9.15;8.45;;;6.80;63.00;;;;;;5218123;28;20041;-66
2021/03/11 07:53:51;;;;;;;9.85;8.95;;;6.90;62.80;;;;;;5218546;28;20433;-65
2021/03/11 07:56:24;;;;;;;9.38;8.68;;;6.90;63.00;;;;;;5215666;28;20048;-66
2021/03/11 07:59:11;;;;;;;9.30;8.60;;;7.00;63.00;;;;;;5215418;28;20029;-66
2021/03/11 08:01:49;;;;;;;10.00;9.05;;;7.10;62.90;;;;;;5214203;28;20033;-66
2021/03/11 08:04:28;;;;;;;9.45;8.68;;;7.10;61.00;;;;;;5217357;28;20052;-65
2021/03/11 08:07:19;;;;;;;9.73;8.93;;;7.10;61.40;;;;;;5214484;28;20041;-65
2021/03/11 08:09:56;;;;;;;9.93;9.13;;;7.10;61.20;;;;;;5216645;28;20045;-65
2021/03/11 08:12:40;;;;;;;10.18;9.27;;;7.10;60.00;;;;;;5215634;28;20121;-65
2021/03/11 08:15:32;;;;;;;10.27;9.38;;;7.20;62.10;;;;;;5214628;28;20042;-65
2021/03/11 08:18:04;;;;;;;9.77;8.90;;;7.10;61.80;;;;;;5218820;28;20112;-65
2021/03/11 08:20:38;;;;;;;10.10;9.30;;;7.20;61.00;;;;;;5217184;28;20044;-65
2021/03/11 08:23:12;;;;;;;10.30;9.40;;;7.20;61.80;;;;;;5218698;28;20525;-66
2021/03/11 08:25:44;;;;;;;9.15;8.40;;;7.30;62.20;;;;;;5215343;28;20033;-65
2021/03/11 08:28:15;;;;;;;10.00;9.20;;;7.30;65.20;;;;;;5217333;28;20045;-66
2021/03/11 08:30:47;;;;;;;9.75;9.00;;;7.40;67.00;;;;;;5214629;28;20057;-66
2021/03/11 08:33:18;;;;;;;10.20;9.30;;;7.40;67.90;;;;;;5218719;28;20041;-65
2021/03/11 08:35:52;;;;;;;9.80;8.90;;;7.40;66.40;;;;;;5212617;28;20040;-66
2021/03/11 08:38:25;;;;;;;9.50;8.70;;;7.50;65.00;;;;;;5216837;28;20033;-65
2021/03/11 08:41:03;;;;;;;10.32;9.43;;;7.60;63.00;;;;;;5213025;28;20118;-65
2021/03/11 08:43:35;;;;;;;10.95;9.88;;;7.70;62.80;;;;;;5216820;28;20041;-66
2021/03/11 08:46:11;;;;;;;10.45;9.43;;;7.80;62.80;;;;;;5211095;28;20037;-65
2021/03/11 08:48:49;;;;;;;10.00;9.10;;;7.90;63.40;;;;;;5215458;28;20045;-65
2021/03/11 08:51:21;;;;;;;10.30;9.50;;;8.00;61.90;;;;;;5213902;28;20044;-66
2021/03/11 08:53:53;;;;;;;9.85;9.05;;;8.10;63.20;;;;;;5214972;28;20052;-66
2021/03/11 08:56:25;;;;;;;9.65;8.95;;;8.20;62.30;;;;;;5211594;28;21096;-66
2021/03/11 08:59:08;;;;;;;10.40;9.57;;;8.30;60.30;;;;;;5212935;28;20045;-66
2021/03/11 09:01:54;;;;;;;10.32;9.52;;;8.40;61.60;;;;;;5213886;28;20064;-66
2021/03/11 09:04:32;;;;;;;10.50;9.70;;;8.50;61.50;;;;;;5212195;28;20130;-65
2021/03/11 09:07:07;;;;;;;10.35;9.45;;;8.60;62.80;;;;;;5212880;28;20059;-66
2021/03/11 09:09:48;;;;;;;10.80;9.82;;;8.70;61.80;;;;;;5217808;28;20040;-65
2021/03/11 09:12:37;;;;;;;10.82;10.02;;;8.80;61.80;;;;;;5216171;28;20155;-66
2021/03/11 09:15:10;;;;;;;10.55;9.65;;;8.90;62.90;;;;;;5215109;28;20693;-66
2021/03/11 09:17:43;;;;;;;11.75;10.77;;;8.90;63.10;;;;;;5217531;28;20122;-66
2021/03/11 09:20:16;;;;;;;11.30;10.40;;;9.00;62.10;;;;;;5214435;28;20045;-66
2021/03/11 09:22:49;;;;;;;11.30;10.27;;;9.10;63.80;;;;;;5178553;28;20073;-66
2021/03/11 09:25:25;;;;;;;10.65;9.85;;;9.20;64.70;;;;;;5214320;28;20049;-66
2021/03/11 09:27:58;;;;;;;11.40;10.50;;;9.30;64.60;;;;;;5217141;28;20088;-67
2021/03/11 09:30:43;;;;;;;10.98;10.18;;;9.40;64.30;;;;;;5213534;28;20046;-66
2021/03/11 09:33:21;;;;;;;11.35;10.27;;;9.50;64.30;;;;;;5218162;28;20067;-66
2021/03/11 09:35:52;;;;;;;11.30;10.30;;;9.60;62.90;;;;;;5208864;28;20048;-65
2021/03/11 09:38:25;;;;;;;11.20;10.30;;;9.70;63.20;;;;;;5213490;28;20047;-66
2021/03/11 09:40:58;;;;;;;12.20;11.20;;;9.80;63.60;;;;;;5211463;28;20045;-66
2021/03/11 09:43:33;;;;;;;12.00;11.00;;;9.80;63.10;;;;;;5216734;28;20049;-67
2021/03/11 09:46:14;;;;;;;12.45;11.25;;;9.90;61.60;;;;;;5209852;28;20037;-66
2021/03/11 09:48:48;;;;;;;11.60;10.50;;;10.00;62.40;;;;;;5213759;28;20041;-66
2021/03/11 09:51:23;;;;;;;13.80;12.50;;;10.10;62.80;;;;;;5214610;28;20068;-66
2021/03/11 09:53:57;;;;;;;12.25;11.10;;;10.20;62.80;;;;;;5214966;28;20068;-66
2021/03/11 09:56:39;;;;;;;12.85;11.80;;;10.40;63.50;;;;;;5211928;28;20084;-66
2021/03/11 09:59:13;;;;;;;12.95;11.65;;;10.50;62.80;;;;;;5211874;28;20402;-66
2021/03/11 10:01:53;;;;;;;13.20;11.98;;;10.60;62.00;;;;;;5212945;28;20037;-66
2021/03/11 10:04:28;;;;;;;12.23;11.20;;;10.70;61.60;;;;;;5215198;28;20041;-65
2021/03/11 10:07:02;;;;;;;12.32;11.35;;;10.80;58.90;;;;;;5211845;28;20051;-66
2021/03/11 10:09:39;;;;;;;12.55;11.50;;;10.90;60.50;;;;;;5216116;28;20045;-66
2021/03/11 10:12:11;;;;;;;11.82;10.93;;;11.10;60.00;;;;;;5213842;28;20418;-66
2021/03/11 10:14:43;;;;;;;12.00;11.10;;;11.10;57.80;;;;;;5213949;28;20510;-66
2021/03/11 10:17:20;;;;;;;11.65;10.77;;;11.20;58.80;;;;;;5215019;28;20041;-67
2021/03/11 10:19:51;;;;;;;11.82;11.00;;;11.30;59.40;;;;;;5215403;28;20574;-66
2021/03/11 10:22:25;;;;;;;12.10;11.20;;;11.40;58.70;;;;;;5211483;28;20377;-66
2021/03/11 10:24:56;;;;;;;11.93;11.02;;;11.50;56.80;;;;;;5214042;28;20060;-65
2021/03/11 10:27:34;;;;;;;12.40;11.50;;;11.60;55.50;;;;;;5212711;28;20052;-66
2021/03/11 10:30:20;;;;;;;12.02;11.13;;;11.80;55.80;;;;;;5215175;28;20653;-66
2021/03/11 10:32:57;;;;;;;11.98;11.18;;;11.90;54.80;;;;;;5215010;28;20052;-66
2021/03/11 10:35:37;;;;;;;12.27;11.38;;;12.10;53.60;;;;;;5211937;28;20045;-66
2021/03/11 10:38:15;;;;;;;12.50;11.60;;;12.40;53.40;;;;;;5214495;28;20051;-66
2021/03/11 10:40:48;;;;;;;12.18;11.32;;;12.60;54.30;;;;;;5212938;28;20057;-66
2021/03/11 10:43:22;;;;;;;12.43;11.55;;;12.70;51.30;;;;;;5216135;28;20033;-67
2021/03/11 10:45:54;;;;;;;12.38;11.48;;;12.70;51.60;;;;;;5211312;28;20055;-66
2021/03/11 10:48:25;;;;;;;12.02;11.13;;;12.70;51.70;;;;;;5215555;28;20159;-67
2021/03/11 10:50:57;;;;;;;12.68;11.77;;;12.80;50.20;;;;;;5214005;28;20506;-66
2021/03/11 10:53:38;;;;;;;12.85;11.95;;;12.90;50.90;;;;;;5214371;28;20048;-67
2021/03/11 10:56:11;;;;;;;12.27;11.38;;;12.90;50.50;;;;;;5213296;28;20143;-66
2021/03/11 10:58:43;;;;;;;12.75;11.75;;;13.00;49.80;;;;;;5211734;28;20068;-66
2021/03/11 11:01:34;;;;;;;12.48;11.43;;;13.00;49.20;;;;;;5210705;28;20553;-66
2021/03/11 11:04:06;;;;;;;13.15;12.25;;;13.00;51.30;;;;;;5211724;28;20046;-66
2021/03/11 11:06:38;;;;;;;12.57;11.68;;;13.10;51.40;;;;;;5205877;28;20157;-66
2021/03/11 11:09:10;;;;;;;12.60;11.70;;;13.20;50.40;;;;;;5204689;28;20075;-67
2021/03/11 11:11:41;;;;;;;13.30;12.35;;;13.20;50.30;;;;;;5203880;28;20053;-66
2021/03/11 11:14:12;;;;;;;13.15;12.25;;;13.30;51.10;;;;;;5217552;28;20044;-67
2021/03/11 11:16:44;;;;;;;13.20;12.10;;;13.50;51.20;;;;;;5208880;28;20541;-66
2021/03/11 11:19:16;;;;;;;13.10;12.18;;;13.70;50.40;;;;;;5209146;28;20037;-66
2021/03/11 11:21:47;;;;;;;12.82;11.93;;;13.70;49.80;;;;;;5203842;28;20065;-67
2021/03/11 11:24:18;;;;;;;13.00;12.10;;;13.90;49.90;;;;;;5210932;28;20107;-66
2021/03/11 11:26:54;;;;;;;12.82;11.93;;;14.00;49.60;;;;;;5203246;28;20152;-65
2021/03/11 11:29:26;;;;;;;13.38;12.48;;;14.10;48.60;;;;;;5209547;28;20077;-66
2021/03/11 11:31:58;;;;;;;13.50;12.60;;;14.20;49.50;;;;;;5210510;28;20056;-67
2021/03/11 11:34:29;;;;;;;13.88;12.77;;;14.30;48.30;;;;;;5220158;28;20064;-68
2021/03/11 11:37:01;;;;;;;13.20;12.30;;;14.40;48.80;;;;;;5216708;28;20541;-66
2021/03/11 11:39:33;;;;;;;13.57;12.50;;;14.60;48.10;;;;;;5218209;28;20049;-66
2021/03/11 11:42:06;;;;;;;13.80;12.73;;;14.80;46.90;;;;;;5203210;28;20227;-67
2021/03/11 11:44:39;;;;;;;14.18;13.18;;;14.90;46.40;;;;;;5212412;28;20040;-67
2021/03/11 11:47:12;;;;;;;14.07;13.07;;;15.20;46.10;;;;;;5216622;28;20048;-66
2021/03/11 11:49:44;;;;;;;14.55;13.07;;;15.30;46.00;;;;;;5218532;28;20077;-68
2021/03/11 11:52:15;;;;;;;14.35;13.25;;;15.30;44.80;;;;;;5216415;28;20050;-68
2021/03/11 11:54:47;;;;;;;14.60;13.60;;;15.40;44.10;;;;;;5213165;28;20072;-67
2021/03/11 11:57:19;;;;;;;14.30;13.30;;;15.40;43.60;;;;;;5216678;28;20052;-66
2021/03/11 11:59:50;;;;;;;15.05;13.55;;;15.40;42.60;;;;;;5215121;28;20045;-68
2021/03/11 12:02:22;;;;;;;14.52;13.43;;;15.60;43.00;;;;;;5215896;28;20041;-67
2021/03/11 12:04:54;;;;;;;14.25;13.25;;;15.50;41.80;;;;;;5216537;28;20052;-66
2021/03/11 12:07:25;;;;;;;14.90;13.77;;;15.40;41.60;;;;;;5215865;28;20049;-67
2021/03/11 12:09:58;;;;;;;14.30;13.30;;;15.50;41.80;;;;;;5215036;28;20052;-66
2021/03/11 12:12:29;;;;;;;14.20;13.20;;;15.60;40.50;;;;;;5217908;28;20114;-66
2021/03/11 12:15:01;;;;;;;14.35;13.35;;;15.70;40.90;;;;;;5217527;28;20049;-67
2021/03/11 12:17:32;;;;;;;14.13;13.13;;;15.80;41.40;;;;;;5218366;28;20041;-67
2021/03/11 12:20:06;;;;;;;14.23;13.23;;;16.00;42.20;;;;;;5216538;28;20098;-66
2021/03/11 12:22:37;;;;;;;14.60;13.60;;;16.10;40.30;;;;;;5205279;28;20150;-67
2021/03/11 12:25:10;;;;;;;14.93;13.93;;;16.20;39.50;;;;;;5213169;28;20514;-67
2021/03/11 12:27:42;;;;;;;14.60;13.60;;;16.40;40.10;;;;;;5216083;28;20094;-66
2021/03/11 12:30:13;;;;;;;14.88;13.77;;;16.40;39.80;;;;;;5207040;28;20682;-66
2021/03/11 12:32:50;;;;;;;15.32;14.23;;;16.60;40.40;;;;;;5217891;28;20055;-67
2021/03/11 12:35:23;;;;;;;15.23;14.23;;;16.70;40.40;;;;;;5217175;28;20142;-66
2021/03/11 12:37:56;;;;;;;15.15;13.93;;;16.70;39.20;;;;;;5217263;28;20051;-67
2021/03/11 12:40:27;;;;;;;15.00;14.00;;;16.70;38.50;;;;;;5214655;28;20060;-67
2021/03/11 12:42:59;;;;;;;15.38;14.10;;;16.80;38.60;;;;;;5216468;28;20044;-66
2021/03/11 12:45:30;;;;;;;14.82;13.73;;;16.70;38.70;;;;;;5210869;28;20131;-67
2021/03/11 12:48:02;;;;;;;17.75;13.35;;;16.60;39.70;;;;;;5212341;28;20040;-67
2021/03/11 12:50:33;;;;;;;14.40;13.40;;;16.40;39.20;;;;;;5216753;28;20145;-67
2021/03/11 12:53:05;;;;;;;14.50;13.40;;;16.10;39.90;;;;;;5211832;28;20052;-66
2021/03/11 12:55:37;;;;;;;15.15;14.05;;;16.10;40.30;;;;;;5213370;28;20053;-67
2021/03/11 12:58:08;;;;;;;15.52;13.98;;;16.00;40.60;;;;;;5209415;28;20767;-66
2021/03/11 13:00:41;;;;;;;14.88;13.88;;;15.90;40.30;;;;;;5215956;28;20049;-68
2021/03/11 13:03:12;;;;;;;14.55;13.50;;;15.60;41.50;;;;;;5211438;28;20037;-67
2021/03/11 13:05:45;;;;;;;14.77;13.70;;;15.70;41.60;;;;;;5216482;28;20041;-65
2021/03/11 13:08:16;;;;;;;14.30;13.30;;;15.60;41.30;;;;;;5214253;28;20049;-66
2021/03/11 13:10:47;;;;;;;14.68;13.57;;;15.50;41.50;;;;;;5215695;28;20041;-67
2021/03/11 13:13:19;;;;;;;14.60;13.50;;;15.50;41.90;;;;;;5210845;28;20103;-67
2021/03/11 13:15:53;;;;;;;14.35;13.35;;;15.40;42.90;;;;;;5216433;28;20052;-67
2021/03/11 13:18:25;;;;;;;14.38;13.27;;;15.30;42.20;;;;;;5217062;28;20029;-66
2021/03/11 13:20:57;;;;;;;14.57;13.50;;;15.20;43.10;;;;;;5214954;28;20087;-68
2021/03/11 13:23:29;;;;;;;14.65;13.65;;;15.20;42.40;;;;;;5214434;28;20128;-66